Time;durP1;ratioP1;P1;durP2;ratioP2;P2;SDS_P1;SDS_P2;PMS_P1;PMS_P2;Temp;Humidity;BMP_temperature;BMP_pressure;BME280_temperature;BME280_humidity;BME280_pressure;Samples;Min_cycle;Max_cycle;Signal;HPM_P1;HPM_P2
2021/10/27 00:01:02;;;;;;;7.57;4.88;;;;;;;11.72;92.01;102029.47;5029097;28;20038;-70
2021/10/27 00:03:28;;;;;;;8.30;4.50;;;;;;;11.82;91.36;102027.69;5027463;28;20076;-69
2021/10/27 00:05:53;;;;;;;7.90;5.00;;;;;;;11.80;91.80;102024.41;5044057;28;20026;-70
2021/10/27 00:08:19;;;;;;;8.20;4.35;;;;;;;11.85;91.33;102033.44;5029465;28;20044;-70
2021/10/27 00:10:44;;;;;;;6.90;4.63;;;;;;;11.83;91.24;102035.34;5025083;28;20041;-70
2021/10/27 00:13:10;;;;;;;11.57;4.63;;;;;;;11.82;91.66;102038.09;5018694;28;20090;-69
2021/10/27 00:15:36;;;;;;;8.52;4.97;;;;;;;11.75;92.09;102034.38;5012928;28;20028;-70
2021/10/27 00:18:01;;;;;;;7.32;4.47;;;;;;;11.78;92.07;102039.31;5024711;28;20037;-70
2021/10/27 00:20:27;;;;;;;8.50;4.88;;;;;;;11.73;92.37;102037.09;5028630;28;20029;-71
2021/10/27 00:22:53;;;;;;;9.07;4.32;;;;;;;11.82;92.04;102033.69;5021544;28;20042;-69
2021/10/27 00:25:19;;;;;;;10.43;4.47;;;;;;;11.75;91.99;102036.97;5026913;28;20040;-71
2021/10/27 00:27:44;;;;;;;7.90;4.72;;;;;;;11.79;92.34;102036.59;5027835;28;20041;-70
2021/10/27 00:30:12;;;;;;;10.77;4.50;;;;;;;11.85;91.82;102041.25;5029209;28;20215;-69
2021/10/27 00:32:37;;;;;;;9.50;4.82;;;;;;;11.83;91.60;102037.16;5028960;28;20381;-71
2021/10/27 00:35:04;;;;;;;8.73;4.82;;;;;;;11.82;91.47;102033.69;5039001;28;20037;-70
2021/10/27 00:37:29;;;;;;;12.07;4.88;;;;;;;11.74;91.83;102036.16;5024704;28;20761;-70
2021/10/27 00:39:55;;;;;;;11.77;4.88;;;;;;;11.83;91.19;102030.16;5029755;28;20060;-70
2021/10/27 00:42:21;;;;;;;7.15;3.80;;;;;;;11.78;91.56;102037.53;5028716;28;20502;-70
2021/10/27 00:44:46;;;;;;;9.38;4.05;;;;;;;11.86;91.36;102042.88;5026727;28;20106;-69
2021/10/27 00:47:14;;;;;;;12.95;4.63;;;;;;;11.72;91.60;102043.28;5024900;28;20606;-70
2021/10/27 00:49:42;;;;;;;9.35;3.78;;;;;;;11.65;92.25;102044.75;5024136;28;20513;-70
2021/10/27 00:52:11;;;;;;;15.40;5.13;;;;;;;11.65;92.35;102052.53;5023322;28;20461;-71
2021/10/27 00:54:42;;;;;;;10.73;4.18;;;;;;;11.72;92.44;102038.06;5026059;28;20037;-70
2021/10/27 00:57:11;;;;;;;8.40;4.10;;;;;;;11.64;92.40;102045.69;5020487;28;20072;-70
2021/10/27 00:59:40;;;;;;;10.70;4.57;;;;;;;11.78;91.94;102041.91;5026068;28;20033;-70
2021/10/27 01:02:06;;;;;;;10.95;4.30;;;;;;;11.71;91.92;102043.41;5019095;28;20037;-70
2021/10/27 01:04:32;;;;;;;12.82;4.63;;;;;;;11.72;91.97;102052.84;5025101;28;20515;-70
2021/10/27 01:06:58;;;;;;;9.68;3.97;;;;;;;11.81;91.55;102047.66;5029206;28;20029;-70
2021/10/27 01:09:24;;;;;;;7.50;3.35;;;;;;;11.72;91.84;102043.28;5021851;28;20057;-70
2021/10/27 01:11:50;;;;;;;7.50;3.88;;;;;;;11.85;91.40;102036.03;5014279;28;20145;-69
2021/10/27 01:14:16;;;;;;;12.90;3.92;;;;;;;11.81;91.68;102041.63;5026319;28;20053;-69
2021/10/27 01:16:43;;;;;;;10.63;4.28;;;;;;;11.84;91.81;102041.38;5027289;28;20037;-69
2021/10/27 01:19:08;;;;;;;8.95;4.13;;;;;;;11.77;91.43;102043.69;5022307;28;20040;-71
2021/10/27 01:21:34;;;;;;;9.60;3.67;;;;;;;11.83;91.51;102045.75;5025383;28;20536;-69
2021/10/27 01:24:00;;;;;;;9.35;3.75;;;;;;;11.93;91.06;102037.19;5023922;28;20548;-69
2021/10/27 01:26:28;;;;;;;8.38;4.05;;;;;;;11.88;91.05;102046.19;5024315;28;20029;-70
2021/10/27 01:28:54;;;;;;;6.03;3.38;;;;;;;11.93;90.88;102032.81;5026103;28;20087;-70
2021/10/27 01:31:21;;;;;;;8.43;4.00;;;;;;;11.95;90.50;102030.88;5022831;28;20037;-70
2021/10/27 01:33:47;;;;;;;8.95;3.75;;;;;;;11.86;90.86;102035.06;5022587;28;20057;-71
2021/10/27 01:36:17;;;;;;;9.52;3.92;;;;;;;11.87;91.05;102034.13;5025507;28;20060;-72
2021/10/27 01:38:44;;;;;;;12.25;4.32;;;;;;;11.85;91.44;102032.63;5024092;28;20052;-70
2021/10/27 01:41:10;;;;;;;10.30;4.07;;;;;;;11.92;90.90;102032.94;5010131;28;20052;-70
2021/10/27 01:43:52;;;;;;;10.45;4.00;;;;;;;11.88;90.92;102021.94;5011468;28;20502;-69
2021/10/27 01:46:30;;;;;;;11.73;3.95;;;;;;;11.97;90.66;102007.38;5018623;28;20025;-70
2021/10/27 01:48:59;;;;;;;14.18;4.25;;;;;;;11.95;90.63;102017.88;5025780;28;20038;-71
2021/10/27 01:51:26;;;;;;;9.90;4.18;;;;;;;11.86;90.83;102018.66;5026640;28;20128;-70
2021/10/27 01:53:53;;;;;;;17.33;4.38;;;;;;;11.90;90.67;102017.47;5022486;28;20044;-70
2021/10/27 01:56:19;;;;;;;15.95;4.22;;;;;;;11.93;90.32;102014.59;5032463;28;20030;-70
2021/10/27 01:58:45;;;;;;;9.20;3.72;;;;;;;11.94;90.51;102018.88;5018283;28;20026;-70
2021/10/27 02:01:11;;;;;;;10.57;4.22;;;;;;;12.05;90.04;102016.13;5025860;28;20030;-70
2021/10/27 02:03:37;;;;;;;7.78;4.28;;;;;;;12.04;89.63;102019.69;5025444;28;20029;-68
2021/10/27 02:06:02;;;;;;;5.93;3.63;;;;;;;12.04;89.61;102009.28;5033486;28;20036;-70
2021/10/27 02:08:28;;;;;;;13.75;4.10;;;;;;;12.03;89.95;102012.81;5024656;28;20037;-69
2021/10/27 02:10:53;;;;;;;10.73;4.85;;;;;;;11.96;89.72;102011.75;5021546;28;20029;-70
2021/10/27 02:13:19;;;;;;;9.82;4.10;;;;;;;11.97;89.86;102020.34;5013997;28;20026;-70
2021/10/27 02:15:46;;;;;;;10.27;4.15;;;;;;;12.09;89.64;102014.06;5023777;28;20049;-70
2021/10/27 02:18:29;;;;;;;12.63;4.20;;;;;;;11.97;89.82;102012.56;5025301;28;20341;-70
2021/10/27 02:21:14;;;;;;;10.10;4.75;;;;;;;12.04;89.67;102011.88;5027292;28;20403;-70
2021/10/27 02:23:39;;;;;;;14.93;4.63;;;;;;;11.96;89.60;102006.56;5009126;28;20029;-72
2021/10/27 02:26:05;;;;;;;11.10;4.43;;;;;;;11.90;89.93;102011.44;5022789;28;20472;-70
2021/10/27 02:28:30;;;;;;;9.40;4.22;;;;;;;12.01;89.79;102006.13;5022214;28;20025;-69
2021/10/27 02:30:55;;;;;;;8.40;4.35;;;;;;;12.02;89.26;102002.59;5028269;28;20099;-71
2021/10/27 02:33:21;;;;;;;15.05;4.10;;;;;;;12.03;89.40;102007.63;5020380;28;20029;-70
2021/10/27 02:35:46;;;;;;;10.45;3.97;;;;;;;11.92;89.66;102007.75;5007179;28;20412;-72
2021/10/27 02:38:14;;;;;;;8.52;3.47;;;;;;;11.86;90.09;102013.47;5027302;28;20104;-70
2021/10/27 02:40:40;;;;;;;10.27;4.15;;;;;;;11.85;90.40;102014.44;5024241;28;20044;-70
2021/10/27 02:43:05;;;;;;;8.68;3.70;;;;;;;12.01;89.74;102006.94;5029667;28;20045;-72
2021/10/27 02:45:31;;;;;;;11.40;4.60;;;;;;;11.94;89.47;102015.41;5025633;28;20241;-69
2021/10/27 02:47:57;;;;;;;8.00;4.07;;;;;;;11.86;90.13;102014.28;5029842;28;20037;-69
2021/10/27 02:50:23;;;;;;;10.75;3.95;;;;;;;11.84;90.00;102010.19;5018903;28;20022;-70
2021/10/27 02:52:49;;;;;;;10.05;4.20;;;;;;;11.92;89.61;102012.94;5029020;28;20036;-69
2021/10/27 02:55:15;;;;;;;12.18;4.07;;;;;;;11.90;89.74;102014.06;5026097;28;20751;-70
2021/10/27 02:57:41;;;;;;;8.25;3.90;;;;;;;11.83;89.92;102013.75;5030726;28;20515;-70
2021/10/27 03:00:08;;;;;;;18.13;4.70;;;;;;;11.92;89.83;102006.94;5023828;28;20036;-70
2021/10/27 03:02:34;;;;;;;9.18;4.05;;;;;;;11.92;89.41;102007.75;5023720;28;20033;-69
2021/10/27 03:05:00;;;;;;;10.63;4.25;;;;;;;11.98;89.29;102009.00;5024051;28;20032;-71
2021/10/27 03:07:27;;;;;;;8.90;3.88;;;;;;;11.94;89.21;102018.03;5030415;28;20029;-70
2021/10/27 03:09:52;;;;;;;12.52;3.30;;;;;;;11.82;89.92;102018.09;5019810;28;20044;-70
2021/10/27 03:12:18;;;;;;;7.57;3.72;;;;;;;11.88;90.02;102015.00;5030022;28;20040;-70
2021/10/27 03:14:45;;;;;;;11.73;4.03;;;;;;;12.08;88.78;102017.63;5025703;28;20034;-69
2021/10/27 03:17:11;;;;;;;9.73;4.07;;;;;;;11.93;89.02;102026.78;5028387;28;20050;-70
2021/10/27 03:19:36;;;;;;;14.32;4.30;;;;;;;11.88;89.55;102025.38;5029346;28;20423;-71
2021/10/27 03:22:02;;;;;;;13.55;5.10;;;;;;;12.00;89.23;102018.31;5028539;28;20037;-70
2021/10/27 03:24:28;;;;;;;14.02;4.93;;;;;;;11.89;89.52;102021.00;5024509;28;20033;-69
2021/10/27 03:29:28;;;;;;;8.10;4.03;;;;;;;11.77;90.07;102022.91;5082056;28;20135;-76
2021/10/27 03:31:53;;;;;;;10.65;4.55;;;;;;;11.74;90.30;102030.97;5053335;28;20080;-77
2021/10/27 03:34:19;;;;;;;11.40;3.63;;;;;;;11.78;90.21;102028.91;5060648;28;20021;-76
2021/10/27 03:36:45;;;;;;;12.85;4.05;;;;;;;11.82;89.84;102027.69;5046362;28;20032;-77
2021/10/27 03:39:11;;;;;;;11.13;4.38;;;;;;;11.86;89.50;102029.88;5050363;28;20025;-76
2021/10/27 03:41:37;;;;;;;16.27;4.57;;;;;;;11.93;89.53;102024.19;5061136;28;20389;-76
2021/10/27 03:44:02;;;;;;;13.52;4.55;;;;;;;11.82;89.75;102019.91;5051158;28;20029;-76
2021/10/27 03:46:28;;;;;;;10.35;4.03;;;;;;;11.77;90.31;102029.88;5049230;28;21394;-76
2021/10/27 03:48:54;;;;;;;14.90;5.75;;;;;;;11.80;90.12;102022.63;5068705;28;20032;-76
2021/10/27 03:51:20;;;;;;;6.28;4.22;;;;;;;11.80;90.01;102022.63;5034534;28;20555;-76
2021/10/27 03:53:45;;;;;;;9.30;4.45;;;;;;;11.81;90.25;102031.22;5046776;28;20483;-75
2021/10/27 03:56:11;;;;;;;12.15;4.35;;;;;;;11.92;89.59;102036.34;5062243;28;20360;-77
2021/10/27 03:58:36;;;;;;;11.98;4.72;;;;;;;11.86;89.90;102035.06;5068911;28;20059;-75
2021/10/27 04:01:03;;;;;;;8.00;4.50;;;;;;;11.83;89.72;102040.56;5044226;28;20200;-76
2021/10/27 04:03:28;;;;;;;12.90;4.93;;;;;;;11.96;89.02;102037.75;5050421;28;20075;-76
2021/10/27 04:05:54;;;;;;;14.73;5.32;;;;;;;11.94;89.21;102037.06;5051646;28;20400;-76
2021/10/27 04:08:20;;;;;;;7.97;3.78;;;;;;;11.88;89.46;102032.34;5036225;28;20077;-76
2021/10/27 04:10:45;;;;;;;11.68;4.35;;;;;;;11.97;89.32;102030.75;5067294;28;20021;-76
2021/10/27 04:13:19;;;;;;;10.65;4.65;;;;;;;11.92;89.24;102027.72;5063961;28;20028;-76
2021/10/27 04:15:45;;;;;;;8.32;4.28;;;;;;;11.87;89.32;102028.94;5044529;28;20448;-76
2021/10/27 04:18:11;;;;;;;9.45;4.43;;;;;;;11.93;89.05;102030.19;5056316;28;20067;-76
2021/10/27 04:20:38;;;;;;;13.57;4.53;;;;;;;12.04;88.39;102035.28;5052928;28;20068;-76
2021/10/27 04:23:05;;;;;;;10.75;4.68;;;;;;;11.99;88.40;102036.63;5041132;28;20500;-76
2021/10/27 04:25:30;;;;;;;12.18;4.85;;;;;;;11.99;88.49;102037.44;5053917;28;20032;-76
2021/10/27 04:27:56;;;;;;;15.68;4.38;;;;;;;11.91;88.99;102037.31;5061764;28;20396;-76
2021/10/27 04:30:23;;;;;;;10.18;4.38;;;;;;;11.93;89.09;102044.97;5039581;28;20118;-76
2021/10/27 04:32:48;;;;;;;15.60;6.30;;;;;;;11.90;88.86;102040.84;5068692;28;20029;-76
2021/10/27 04:35:15;;;;;;;17.33;5.00;;;;;;;11.91;89.10;102041.69;5060613;28;20017;-76
2021/10/27 04:37:42;;;;;;;11.48;5.60;;;;;;;11.93;88.62;102030.19;5048173;28;20028;-76
2021/10/27 04:40:11;;;;;;;9.73;5.30;;;;;;;11.90;88.72;102040.84;5065070;28;20125;-76
2021/10/27 04:42:37;;;;;;;12.93;4.78;;;;;;;11.92;89.02;102043.31;5043120;28;20085;-76
2021/10/27 04:45:05;;;;;;;10.77;5.32;;;;;;;11.91;88.75;102041.69;5059055;28;20040;-76
2021/10/27 04:47:30;;;;;;;9.10;4.75;;;;;;;11.91;88.62;102047.72;5048713;28;20029;-76
2021/10/27 04:49:57;;;;;;;11.35;5.05;;;;;;;11.82;88.98;102044.09;5041649;28;20044;-76
2021/10/27 04:52:23;;;;;;;13.85;5.05;;;;;;;11.80;89.26;102048.59;5049528;28;20044;-76
2021/10/27 04:54:49;;;;;;;13.13;4.70;;;;;;;11.79;89.24;102054.78;5066711;28;20037;-76
2021/10/27 04:57:15;;;;;;;15.43;5.28;;;;;;;11.72;89.30;102053.66;5048193;28;20032;-76
2021/10/27 04:59:44;;;;;;;8.43;4.80;;;;;;;11.67;89.76;102053.22;5070615;28;20040;-77
2021/10/27 05:02:14;;;;;;;10.35;4.88;;;;;;;11.65;89.74;102058.56;5044400;28;20090;-76
2021/10/27 05:04:41;;;;;;;11.40;4.90;;;;;;;11.69;89.89;102053.91;5038561;28;20073;-76
2021/10/27 05:07:09;;;;;;;12.43;5.60;;;;;;;11.76;88.92;102062.84;5063056;28;20473;-76
2021/10/27 05:09:34;;;;;;;10.55;5.50;;;;;;;11.76;89.11;102049.03;5044270;28;20043;-76
2021/10/27 05:12:01;;;;;;;13.52;5.65;;;;;;;11.76;88.87;102049.03;5063686;28;20515;-76
2021/10/27 05:14:26;;;;;;;9.77;4.68;;;;;;;11.73;88.91;102038.88;5034276;28;20024;-76
2021/10/27 05:16:52;;;;;;;11.18;5.47;;;;;;;11.68;89.18;102037.50;5047216;28;20044;-76
2021/10/27 05:19:17;;;;;;;13.23;5.50;;;;;;;11.63;89.27;102034.47;5062980;28;20051;-76
2021/10/27 05:21:43;;;;;;;14.70;5.22;;;;;;;11.62;89.43;102032.84;5028437;28;20033;-76
2021/10/27 05:24:09;;;;;;;11.77;5.38;;;;;;;11.63;88.89;102021.50;5062939;28;20052;-76
2021/10/27 05:26:34;;;;;;;12.77;5.25;;;;;;;11.63;88.97;102029.28;5061995;28;20028;-76
2021/10/27 05:28:59;;;;;;;14.32;5.93;;;;;;;11.74;88.27;102037.94;5065371;28;20405;-76
2021/10/27 05:31:25;;;;;;;20.48;6.88;;;;;;;11.78;88.23;102036.72;5059735;28;20032;-77
2021/10/27 05:33:50;;;;;;;16.15;6.18;;;;;;;11.69;88.41;102026.16;5065034;28;20044;-76
2021/10/27 05:36:17;;;;;;;14.02;5.20;;;;;;;11.68;88.14;102032.31;5057953;28;20020;-76
2021/10/27 05:38:42;;;;;;;9.80;5.47;;;;;;;11.68;88.36;102028.91;5051097;28;20048;-76
2021/10/27 05:41:07;;;;;;;12.82;6.25;;;;;;;11.67;88.12;102032.44;5044715;28;20044;-76
2021/10/27 05:43:34;;;;;;;13.05;5.30;;;;;;;11.86;87.28;102029.88;5055736;28;20037;-77
2021/10/27 05:46:00;;;;;;;13.82;5.40;;;;;;;11.81;87.54;102037.28;5041490;28;20021;-76
2021/10/27 05:48:28;;;;;;;19.02;5.68;;;;;;;11.78;88.08;102041.91;5050092;28;20036;-76
2021/10/27 05:51:15;;;;;;;15.10;5.72;;;;;;;11.75;88.13;102037.78;5067163;28;20031;-76
2021/10/27 05:56:24;;;;;;;10.18;5.10;;;;;;;11.74;87.74;102043.13;5056262;28;20032;-76
2021/10/27 05:58:50;;;;;;;16.05;5.60;;;;;;;11.65;88.56;102042.97;5034603;28;20434;-76
2021/10/27 06:01:16;;;;;;;13.30;5.45;;;;;;;11.64;88.57;102043.94;5047248;28;20032;-76
2021/10/27 06:03:42;;;;;;;10.02;5.18;;;;;;;11.83;87.49;102050.94;5066877;28;20032;-76
2021/10/27 06:06:08;;;;;;;8.82;4.63;;;;;;;11.81;87.36;102047.66;5056789;28;20432;-76
2021/10/27 06:08:34;;;;;;;15.68;5.78;;;;;;;11.85;87.01;102048.22;5041459;28;20036;-76
2021/10/27 06:11:07;;;;;;;13.50;5.35;;;;;;;11.80;87.22;102051.22;5047743;28;20311;-76
2021/10/27 06:13:51;;;;;;;13.65;5.10;;;;;;;11.86;87.16;102049.84;5057880;28;20036;-77
2021/10/27 06:16:35;;;;;;;17.65;5.60;;;;;;;11.87;86.80;102054.09;5062551;28;20083;-76
2021/10/27 06:19:20;;;;;;;9.65;4.50;;;;;;;11.81;87.22;102062.41;5071294;28;20144;-77
2021/10/27 06:21:45;;;;;;;19.88;7.32;;;;;;;11.81;87.03;102059.81;5052739;28;20090;-76
2021/10/27 06:24:11;;;;;;;11.25;5.05;;;;;;;11.82;87.11;102062.28;5038140;28;20735;-76
2021/10/27 06:26:37;;;;;;;16.98;5.10;;;;;;;11.83;87.11;102061.34;5062738;28;20040;-77
2021/10/27 06:34:05;;;;;;;15.23;5.18;;;;;;;11.96;86.68;102061.13;5052806;28;20025;-78
2021/10/27 06:47:17;;;;;;;11.18;5.05;;;;;;;11.87;86.49;102075.72;5039793;28;20029;-76
2021/10/27 06:49:43;;;;;;;12.48;4.88;;;;;;;11.82;86.92;102085.69;5032861;28;20033;-76
2021/10/27 06:52:09;;;;;;;12.45;4.25;;;;;;;11.87;86.52;102083.50;5046859;28;20115;-76
2021/10/27 06:54:35;;;;;;;10.55;4.65;;;;;;;11.86;86.98;102083.63;5041156;28;20031;-78
2021/10/27 06:57:02;;;;;;;18.38;5.97;;;;;;;11.92;86.43;102087.50;5067293;28;20032;-76
2021/10/27 06:59:33;;;;;;;8.43;3.58;;;;;;;11.91;86.45;102098.88;5059916;28;20124;-76
2021/10/27 07:17:29;;;;;;;7.95;4.55;;;;;;;11.93;86.05;102102.97;5069394;28;20067;-76
2021/10/27 07:19:55;;;;;;;9.85;4.72;;;;;;;11.90;86.17;102107.63;5068577;28;20121;-78
2021/10/27 07:22:21;;;;;;;16.23;5.15;;;;;;;11.90;86.32;102108.44;5028434;28;20101;-76
2021/10/27 07:24:46;;;;;;;9.60;4.60;;;;;;;11.88;86.01;102111.16;5051219;28;20555;-77
2021/10/27 07:27:12;;;;;;;9.63;4.38;;;;;;;11.86;86.30;102105.25;5040826;28;20028;-78
2021/10/27 07:29:42;;;;;;;15.63;5.13;;;;;;;11.91;86.11;102114.47;5070660;28;20063;-77
2021/10/27 07:32:09;;;;;;;10.70;4.07;;;;;;;11.93;85.93;102115.97;5035764;28;20036;-77
2021/10/27 07:34:38;;;;;;;6.75;3.95;;;;;;;11.92;86.06;102111.72;5040568;28;20051;-76
2021/10/27 07:40:07;;;;;;;11.93;4.93;;;;;;;11.91;85.91;102117.06;5067704;28;20052;-77
2021/10/27 07:42:35;;;;;;;12.13;4.22;;;;;;;11.94;85.80;102115.03;5045066;28;20043;-76
2021/10/27 07:45:01;;;;;;;12.10;4.45;;;;;;;11.92;85.79;102114.31;5043140;28;20055;-76
2021/10/27 07:47:27;;;;;;;14.05;4.47;;;;;;;12.01;85.31;102116.13;5046995;28;20162;-77
2021/10/27 07:49:52;;;;;;;10.77;4.50;;;;;;;12.03;85.36;102121.19;5050340;28;20032;-77
2021/10/27 07:52:19;;;;;;;7.50;4.82;;;;;;;11.99;84.99;102114.63;5062235;28;20033;-76
2021/10/27 07:54:45;;;;;;;8.73;4.45;;;;;;;11.98;85.22;102116.41;5063734;28;20071;-76
2021/10/27 07:57:12;;;;;;;10.50;3.85;;;;;;;12.08;84.37;102124.22;5065699;28;20028;-76
2021/10/27 07:59:38;;;;;;;7.55;3.65;;;;;;;12.04;84.04;102117.66;5048096;28;20074;-76
2021/10/27 08:02:05;;;;;;;10.88;4.25;;;;;;;12.01;84.61;102130.91;5045894;28;20028;-77
2021/10/27 08:04:31;;;;;;;8.00;4.00;;;;;;;12.09;84.05;102133.66;5065275;28;20081;-77
2021/10/27 08:06:57;;;;;;;8.38;3.75;;;;;;;12.18;83.09;102127.66;5051186;28;20488;-78
2021/10/27 08:09:22;;;;;;;11.38;3.78;;;;;;;12.20;83.17;102133.53;5048198;28;20281;-77
2021/10/27 08:11:49;;;;;;;10.18;3.88;;;;;;;12.23;83.13;102135.88;5054308;28;20028;-78
2021/10/27 08:14:15;;;;;;;9.88;3.40;;;;;;;12.17;83.29;102130.41;5063254;28;20062;-77
2021/10/27 08:16:41;;;;;;;9.45;3.53;;;;;;;12.23;83.71;102125.47;5052297;28;20090;-76
2021/10/27 08:19:07;;;;;;;9.35;3.65;;;;;;;12.36;82.62;102132.22;5042936;28;20477;-77
2021/10/27 08:21:33;;;;;;;9.70;3.80;;;;;;;12.29;82.40;102133.72;5067553;28;20043;-76
2021/10/27 08:23:59;;;;;;;7.32;3.47;;;;;;;12.25;82.94;102136.56;5066376;28;20041;-76
2021/10/27 08:26:26;;;;;;;11.70;3.30;;;;;;;12.24;82.89;102142.75;5064390;28;20112;-78
2021/10/27 08:28:58;;;;;;;11.23;4.10;;;;;;;12.22;82.82;102143.81;5044534;28;20148;-77
2021/10/27 08:36:21;;;;;;;12.00;3.05;;;;;;;12.34;82.33;102139.31;5061520;28;20024;-77
2021/10/27 08:38:51;;;;;;;7.78;3.35;;;;;;;12.36;82.26;102142.63;5050024;28;20060;-77
2021/10/27 08:41:17;;;;;;;14.23;3.20;;;;;;;12.33;82.33;102145.47;5047952;28;20040;-77
2021/10/27 08:43:43;;;;;;;10.18;3.13;;;;;;;12.33;82.32;102146.28;5066003;28;20276;-77
2021/10/27 08:46:11;;;;;;;8.00;2.50;;;;;;;12.32;82.51;102141.22;5065376;28;20033;-77
2021/10/27 08:48:38;;;;;;;10.10;3.40;;;;;;;12.34;82.05;102134.94;5068125;28;20115;-77
2021/10/27 08:51:05;;;;;;;7.40;2.95;;;;;;;12.45;81.64;102150.44;5050590;28;20037;-77
2021/10/27 08:53:33;;;;;;;12.65;2.97;;;;;;;12.58;81.10;102144.13;5062212;28;20028;-77
2021/10/27 08:56:02;;;;;;;7.68;2.40;;;;;;;12.59;81.16;102145.78;5041572;28;20166;-77
2021/10/27 08:58:37;;;;;;;10.88;3.22;;;;;;;12.68;80.76;102144.97;5049683;28;20032;-78
2021/10/27 09:06:37;;;;;;;6.68;2.53;;;;;;;12.61;81.22;102147.28;5063941;28;20032;-77
2021/10/27 09:09:31;;;;;;;9.95;2.70;;;;;;;12.72;80.97;102148.13;5030913;28;20131;-77
2021/10/27 09:38:42;;;;;;;9.90;2.17;;;;;;;13.54;77.70;102146.75;5047372;28;20139;-77
2021/10/27 09:40:58;;;;;;;7.78;2.22;;;;;;;13.48;78.29;102152.53;5046260;28;20054;-76
2021/10/27 09:43:46;;;;;;;11.65;2.80;;;;;;;13.61;77.82;102145.22;5048905;28;20488;-76
2021/10/27 10:04:56;;;;;;;7.03;1.90;;;;;;;14.36;75.50;102135.47;5043376;28;20717;-77
2021/10/27 10:07:22;;;;;;;11.10;3.15;;;;;;;14.48;74.57;102136.06;5066119;28;20032;-78
2021/10/27 10:10:08;;;;;;;7.05;2.05;;;;;;;14.60;73.90;102136.72;5060243;28;20055;-77
2021/10/27 10:12:46;;;;;;;6.03;2.30;;;;;;;14.75;73.17;102132.59;5056050;28;20540;-77
2021/10/27 10:15:12;;;;;;;4.20;1.70;;;;;;;14.61;74.41;102120.06;5062015;28;20505;-77
2021/10/27 10:17:39;;;;;;;9.13;2.28;;;;;;;14.56;74.24;102122.28;5065451;28;20237;-77
2021/10/27 10:20:06;;;;;;;7.00;1.88;;;;;;;14.67;73.55;102126.47;5059461;28;20047;-76
2021/10/27 10:22:35;;;;;;;6.75;1.70;;;;;;;14.55;75.06;102121.44;5048008;28;20078;-77
2021/10/27 10:25:16;;;;;;;8.82;1.92;;;;;;;14.58;75.17;102123.00;5070798;28;20094;-77
2021/10/27 10:27:43;;;;;;;5.18;1.60;;;;;;;14.65;74.40;102117.97;5057662;28;20032;-78
2021/10/27 10:30:37;;;;;;;4.95;1.55;;;;;;;14.77;73.00;102117.59;5049650;28;20705;-79
2021/10/27 10:33:13;;;;;;;4.57;1.55;;;;;;;14.78;73.27;102119.22;5046718;28;20111;-76
2021/10/27 10:38:32;;;;;;;6.93;1.63;;;;;;;14.76;73.74;102117.75;5052689;28;20580;-77
2021/10/27 10:41:16;;;;;;;7.55;1.70;;;;;;;14.98;71.91;102124.28;5062226;28;20075;-77
2021/10/27 11:39:54;;;;;;;6.35;1.40;;;;;;;15.51;68.98;102075.41;5057222;28;20041;-77
2021/10/27 11:45:10;;;;;;;5.18;1.58;;;;;;;15.48;68.38;102080.94;5041989;28;20359;-77
2021/10/27 11:47:39;;;;;;;4.85;1.58;;;;;;;15.60;69.10;102071.84;5022777;28;20112;-76
2021/10/27 11:50:07;;;;;;;8.30;1.42;;;;;;;15.61;68.74;102065.63;5030089;28;20040;-80
2021/10/27 11:52:43;;;;;;;5.78;1.52;;;;;;;15.72;68.52;102065.31;5059210;28;20473;-77
2021/10/27 11:55:13;;;;;;;5.70;1.88;;;;;;;15.72;68.54;102062.72;5040927;28;20033;-79
2021/10/27 11:57:41;;;;;;;5.40;1.23;;;;;;;15.73;68.65;102061.78;5048799;28;20504;-77
2021/10/27 12:00:24;;;;;;;10.15;1.75;;;;;;;15.74;68.52;102063.41;5046075;28;20024;-79
2021/10/27 12:03:05;;;;;;;18.73;2.25;;;;;;;15.66;69.56;102063.34;5043908;28;20037;-77
2021/10/27 12:05:41;;;;;;;25.45;11.02;;;;;;;15.67;69.57;102062.41;5064486;28;20040;-79
2021/10/27 12:11:16;;;;;;;7.97;1.55;;;;;;;15.84;68.98;102058.06;5053422;28;20044;-78
2021/10/27 12:18:56;;;;;;;5.88;1.20;;;;;;;15.84;68.45;102055.44;5063500;28;20520;-77
2021/10/27 12:21:25;;;;;;;3.08;1.63;;;;;;;15.77;68.82;102057.06;5046487;28;20040;-79
2021/10/27 12:23:51;;;;;;;9.52;2.35;;;;;;;15.80;68.86;102048.88;5045006;28;20028;-79
2021/10/27 12:26:17;;;;;;;4.97;1.85;;;;;;;15.91;68.30;102055.59;5043178;28;20097;-77
2021/10/27 12:28:43;;;;;;;5.18;1.30;;;;;;;15.83;69.70;102050.38;5065782;28;20468;-78
2021/10/27 12:31:23;;;;;;;5.50;1.77;;;;;;;15.77;70.51;102044.78;5025115;28;20039;-77
2021/10/27 12:33:50;;;;;;;7.72;1.70;;;;;;;15.97;70.07;102049.72;5025404;28;20037;-78
2021/10/27 12:36:29;;;;;;;6.07;1.33;;;;;;;16.15;68.79;102044.34;5057847;28;20032;-78
2021/10/27 12:39:35;;;;;;;5.90;1.50;;;;;;;16.19;68.85;102048.28;5067669;28;20409;-79
2021/10/27 12:42:05;;;;;;;5.03;1.70;;;;;;;16.10;68.22;102036.97;5045815;28;20044;-79
2021/10/27 12:44:31;;;;;;;9.40;1.80;;;;;;;16.06;68.03;102025.22;5036313;28;20079;-77
2021/10/27 12:47:06;;;;;;;5.05;1.60;;;;;;;15.97;68.16;102028.78;5030122;28;20127;-76
2021/10/27 12:49:32;;;;;;;6.50;1.70;;;;;;;15.89;68.58;102020.94;5037252;28;20036;-76
2021/10/27 12:51:57;;;;;;;6.53;1.85;;;;;;;15.99;68.33;102021.59;5047934;28;20040;-78
2021/10/27 12:54:29;;;;;;;4.50;1.40;;;;;;;15.92;68.45;102023.25;5059254;28;20033;-77
2021/10/27 12:57:05;;;;;;;8.40;1.95;;;;;;;16.05;68.14;102022.75;5043529;28;20101;-79
2021/10/27 12:59:32;;;;;;;4.72;1.40;;;;;;;16.00;68.36;102022.44;5053869;28;20028;-79
2021/10/27 13:02:24;;;;;;;8.55;1.70;;;;;;;16.00;68.45;102027.66;5061320;28;20040;-79
2021/10/27 13:04:59;;;;;;;10.50;2.03;;;;;;;16.07;69.30;102028.66;5043393;28;20024;-77
2021/10/27 13:07:33;;;;;;;4.03;1.50;;;;;;;16.18;67.97;102030.13;5047047;28;20056;-79
2021/10/27 13:10:20;;;;;;;6.93;1.70;;;;;;;16.05;68.99;102026.22;5063344;28;20039;-78
2021/10/27 13:21:06;;;;;;;6.05;1.60;;;;;;;16.03;69.57;102015.09;5043412;28;20044;-76
2021/10/27 13:23:54;;;;;;;8.40;1.48;;;;;;;15.95;69.72;102017.69;5059106;28;20058;-77
2021/10/27 13:31:49;;;;;;;6.20;1.75;;;;;;;15.91;70.34;102014.56;5045188;28;20448;-78
2021/10/27 13:34:15;;;;;;;6.18;1.27;;;;;;;15.82;70.19;102015.53;5042574;28;20144;-78
2021/10/27 13:36:41;;;;;;;5.63;1.52;;;;;;;15.82;70.02;102012.91;5050758;28;20017;-77
2021/10/27 13:39:06;;;;;;;6.13;1.67;;;;;;;15.83;70.13;102011.94;5057975;28;20044;-78
2021/10/27 13:41:32;;;;;;;6.32;1.20;;;;;;;15.86;70.81;102016.88;5047315;28;20033;-78
2021/10/27 13:44:05;;;;;;;3.25;1.30;;;;;;;15.87;70.14;102015.88;5063641;28;20032;-77
2021/10/27 13:46:52;;;;;;;9.15;1.27;;;;;;;15.89;70.10;102011.28;5040611;28;20481;-78
2021/10/27 13:49:41;;;;;;;5.40;1.45;;;;;;;15.81;70.63;102013.09;5061948;28;20062;-77
2021/10/27 14:06:05;;;;;;;4.03;1.05;;;;;;;16.21;67.63;101999.22;5062262;28;20036;-77
2021/10/27 14:08:44;;;;;;;9.52;1.77;;;;;;;16.20;66.90;101989.75;5037479;28;20028;-76
2021/10/27 14:11:20;;;;;;;4.85;1.05;;;;;;;16.11;67.70;101988.13;5047469;28;20446;-77
2021/10/27 14:16:50;;;;;;;7.22;1.50;;;;;;;16.03;68.08;102001.16;5042224;28;20063;-77
2021/10/27 14:19:29;;;;;;;2.17;1.10;;;;;;;16.01;68.10;101993.50;5042864;28;20041;-76
2021/10/27 15:35:58;;;;;;;9.80;2.90;;;;;;;15.20;70.12;101958.34;5046890;28;20515;-77
2021/10/27 15:51:57;;;;;;;9.40;4.18;;;;;;;14.70;71.47;101957.31;5041878;28;20040;-76
2021/10/27 15:54:22;;;;;;;6.05;3.58;;;;;;;14.59;71.83;101965.41;5061334;28;20059;-76
2021/10/27 15:56:48;;;;;;;6.75;3.05;;;;;;;14.50;72.46;101961.06;5066366;28;20028;-76
2021/10/27 15:59:15;;;;;;;7.22;4.63;;;;;;;14.48;72.71;101968.25;5022531;28;20543;-76
2021/10/27 16:01:41;;;;;;;10.98;3.97;;;;;;;14.48;72.45;101966.44;5046511;28;20036;-75
2021/10/27 16:04:06;;;;;;;5.00;2.10;;;;;;;14.48;72.81;101965.63;5043386;28;20040;-77
2021/10/27 16:06:40;;;;;;;7.35;2.45;;;;;;;14.36;73.19;101965.88;5035518;28;20029;-77
2021/10/27 16:09:09;;;;;;;5.30;2.15;;;;;;;14.26;73.94;101966.94;5044607;28;20032;-76
2021/10/27 16:11:35;;;;;;;8.48;3.63;;;;;;;14.21;73.98;101970.00;5044259;28;20036;-76